This demonstration page uses our WeatherBlox Daily Observations layout. Learn more.

41.55636, -103.73856

Hourly Observations for October 22, 2016

Temp ( °F °C ) Dew Point ( °F °C ) Humidity (%) Winds ( mph kmh ) Pressure ( in mb ) Visibility ( mi km ) Precip ( " mm )
12:53 am 00:53 Clear 44 6.7 30 -1.1 58 58 E 8 13 29.97 1015 10 16.0934 0 0
1:53 am 01:53 Clear 41 5 30 -1.1 65 65 E 9 15 29.96 1014 10 16.0934 0 0
2:53 am 02:53 Clear 41 5 29 -1.7 62 62 E 9 15 29.92 1013 10 16.0934 0 0
3:53 am 03:53 Clear 42 5.6 29 -1.7 60 60 Calm 29.9 1013 10 16.0934 0 0
4:53 am 04:53 Clear 36 2.2 28 -2.2 73 73 ENE 5 7 29.92 1013 10 16.0934 0 0
5:53 am 05:53 Clear 38 3.3 27 -2.8 65 65 undefined N/A 29.93 1013 10 16.0934 0 0
6:53 am 06:53 Clear 35 1.7 27 -2.8 72 72 Calm 29.96 1014 10 16.0934 0 0
7:53 am 07:53 Sunny 36 2.2 28 -2.2 73 73 E 5 7 29.96 1015 10 16.0934 0 0
8:53 am 08:53 Sunny 47 8.3 29 -1.7 50 50 ESE 3 6 29.95 1014 10 16.0934 0 0
9:53 am 09:53 Sunny 52 11.1 32 0 47 47 Calm 29.93 1014 10 16.0934 0 0
10:53 am 10:53 Sunny 61 16.1 29 -1.7 30 30 NW 3 6 29.9 1012 10 16.0934 0 0
11:53 am 11:53 Sunny 71 21.7 27 -2.8 19 19 WNW 9 15 29.85 1011 10 16.0934 0 0
12:53 pm 12:53 Sunny 79 26.1 26 -3.3 14 14 W 12 19 29.8 1009 7 11.26538 0 0
1:53 pm 13:53 Sunny 80 26.7 24 -4.4 13 13 W 8 13 29.78 1009 10 16.0934 0 0
2:53 pm 14:53 Sunny 83 28.3 21 -6.1 10 10 W 18 30 29.76 1008 10 16.0934 0 0
3:53 pm 15:53 Sunny 82 27.8 21 -6.1 10 10 W 20 31 29.77 1008 10 16.0934 0 0
4:53 pm 16:53 Sunny 77 25 22 -5.6 13 13 WNW 12 19 29.8 1009 10 16.0934 0 0
5:53 pm 17:53 Sunny 72 22.2 23 -5 16 16 W 10 17 29.83 1010 10 16.0934 0 0
6:53 pm 18:53 Clear 63 17.2 24 -4.4 23 23 W 7 11 29.88 1012 10 16.0934 0 0
7:53 pm 19:53 Clear 60 15.6 24 -4.4 25 25 N 10 17 29.91 1013 10 16.0934 0 0
8:53 pm 20:53 Clear 60 15.6 23 -5 24 24 W 5 7 29.9 1012 10 16.0934 0 0
9:53 pm 21:53 Clear 60 15.6 23 -5 24 24 NNE 8 13 29.94 1014 10 16.0934 0 0
10:53 pm 22:53 Clear 51 10.6 25 -3.9 36 36 NW 5 7 29.97 1015 10 16.0934 0 0
11:53 pm 23:53 Clear 52 11.1 27 -2.8 38 38 ENE 5 7 29.98 1015 10 16.0934 0 0

Powered by AerisWeather